createdAt,value
2022-07-25T00:00:26.675Z,10.40
2022-07-25T00:02:53.702Z,10.03
2022-07-25T00:05:21.204Z,9.70
2022-07-25T00:07:48.674Z,9.80
2022-07-25T00:10:15.909Z,8.87
2022-07-25T00:12:42.971Z,10.33
2022-07-25T00:15:10.825Z,9.47
2022-07-25T00:17:37.932Z,9.13
2022-07-25T00:20:06.106Z,10.80
2022-07-25T00:22:33.357Z,8.80
2022-07-25T00:25:00.415Z,8.90
2022-07-25T00:27:27.560Z,9.03
2022-07-25T00:29:54.542Z,9.20
2022-07-25T00:32:21.559Z,10.00
2022-07-25T00:34:48.612Z,9.87
2022-07-25T00:37:15.695Z,10.33
2022-07-25T00:39:42.733Z,9.80
2022-07-25T00:42:09.780Z,9.20
2022-07-25T00:44:36.745Z,9.40
2022-07-25T00:47:04.078Z,9.90
2022-07-25T00:49:31.119Z,9.77
2022-07-25T00:51:58.796Z,9.40
2022-07-25T00:54:25.908Z,10.40
2022-07-25T00:56:53.287Z,9.93
2022-07-25T00:59:20.335Z,10.23
2022-07-25T01:01:48.589Z,10.10
2022-07-25T01:04:16.589Z,8.90
2022-07-25T01:06:44.002Z,9.83
2022-07-25T01:09:11.126Z,9.50
2022-07-25T01:11:38.952Z,9.97
2022-07-25T01:14:07.238Z,10.17
2022-07-25T01:16:34.691Z,9.30
2022-07-25T01:19:01.795Z,10.80
2022-07-25T01:21:29.207Z,9.13
2022-07-25T01:23:57.408Z,9.80
2022-07-25T01:26:24.447Z,9.60
2022-07-25T01:28:51.562Z,9.70
2022-07-25T01:31:18.677Z,8.87
2022-07-25T01:33:45.724Z,9.00
2022-07-25T01:36:12.889Z,9.70
2022-07-25T01:38:40.381Z,9.60
2022-07-25T01:41:07.478Z,8.77
2022-07-25T01:43:34.595Z,9.83
2022-07-25T01:46:01.799Z,9.63
2022-07-25T01:48:28.965Z,9.10
2022-07-25T01:50:56.076Z,8.30
2022-07-25T01:53:24.291Z,8.70
2022-07-25T01:55:52.697Z,8.77
2022-07-25T01:58:21.416Z,9.10
2022-07-25T02:00:48.941Z,10.20
2022-07-25T02:03:31.183Z,10.73
2022-07-25T02:06:03.584Z,10.70
2022-07-25T02:08:31.557Z,9.57
2022-07-25T02:10:59.185Z,9.57
2022-07-25T02:13:26.643Z,9.90
2022-07-25T02:15:53.720Z,10.90
2022-07-25T02:18:20.779Z,9.97
2022-07-25T02:20:47.818Z,10.30
2022-07-25T02:23:14.860Z,10.50
2022-07-25T02:25:41.915Z,9.80
2022-07-25T02:28:10.755Z,9.10
2022-07-25T02:30:38.507Z,10.27
2022-07-25T02:33:06.155Z,9.40
2022-07-25T02:35:33.209Z,8.70
2022-07-25T02:38:00.293Z,9.90
2022-07-25T02:40:27.671Z,9.20
2022-07-25T02:42:54.721Z,9.60
2022-07-25T02:45:21.772Z,10.00
2022-07-25T02:47:48.883Z,9.70
2022-07-25T02:50:15.901Z,9.50
2022-07-25T02:52:43.848Z,9.43
2022-07-25T02:55:11.928Z,9.80
2022-07-25T02:57:39.055Z,10.07
2022-07-25T03:00:08.388Z,11.10
2022-07-25T03:02:35.509Z,10.27
2022-07-25T03:05:03.133Z,11.70
2022-07-25T03:07:30.129Z,10.30
2022-07-25T03:09:57.143Z,11.63
2022-07-25T03:12:24.129Z,11.10
2022-07-25T03:14:51.288Z,10.80
2022-07-25T03:17:18.376Z,10.90
2022-07-25T03:19:45.416Z,11.13
2022-07-25T03:22:12.394Z,11.17
2022-07-25T03:24:39.409Z,10.40
2022-07-25T03:27:06.545Z,9.33
2022-07-25T03:29:33.760Z,10.57
2022-07-25T03:32:00.899Z,9.57
2022-07-25T03:34:28.256Z,10.27
2022-07-25T03:36:55.293Z,10.37
2022-07-25T03:39:24.555Z,9.60
2022-07-25T03:41:52.940Z,9.43
2022-07-25T03:44:20.848Z,10.40
2022-07-25T03:46:47.870Z,9.93
2022-07-25T03:49:15.000Z,10.60
2022-07-25T03:51:42.552Z,10.57
2022-07-25T03:54:13.773Z,9.70
2022-07-25T03:56:49.386Z,9.20
2022-07-25T03:59:18.921Z,9.70
2022-07-25T04:01:47.806Z,9.37
2022-07-25T04:04:14.943Z,9.27
2022-07-25T04:06:42.294Z,10.43
2022-07-25T04:09:10.463Z,9.13
2022-07-25T04:11:38.499Z,9.40
2022-07-25T04:14:06.914Z,9.50
2022-07-25T04:16:34.716Z,9.70
2022-07-25T04:19:02.346Z,8.50
2022-07-25T04:21:29.416Z,8.30
2022-07-25T04:23:56.676Z,8.73
2022-07-25T04:26:23.988Z,8.83
2022-07-25T04:28:51.146Z,10.07
2022-07-25T04:31:18.356Z,9.10
2022-07-25T04:33:45.475Z,8.73
2022-07-25T04:36:13.001Z,7.90
2022-07-25T04:38:39.977Z,9.07
2022-07-25T04:41:07.128Z,9.20
2022-07-25T04:43:34.122Z,8.80
2022-07-25T04:46:02.037Z,8.90
2022-07-25T04:48:29.402Z,8.90
2022-07-25T04:50:56.457Z,8.60
2022-07-25T04:53:23.471Z,8.60
2022-07-25T04:55:50.501Z,8.03
2022-07-25T04:58:17.493Z,7.73
2022-07-25T05:00:44.539Z,8.57
2022-07-25T05:03:11.854Z,8.00
2022-07-25T05:05:38.921Z,9.10
2022-07-25T05:08:06.131Z,8.07
2022-07-25T05:10:33.214Z,8.70
2022-07-25T05:13:00.208Z,8.43
2022-07-25T05:15:27.232Z,8.00
2022-07-25T05:17:54.188Z,8.27
2022-07-25T05:20:21.211Z,9.20
2022-07-25T05:22:48.209Z,8.67
2022-07-25T05:25:15.466Z,8.77
2022-07-25T05:27:42.666Z,7.93
2022-07-25T05:30:11.834Z,9.00
2022-07-25T05:32:39.395Z,9.20
2022-07-25T05:35:08.177Z,9.13
2022-07-25T05:37:36.318Z,9.17
2022-07-25T05:40:04.744Z,9.23
2022-07-25T05:42:31.749Z,8.63
2022-07-25T05:44:58.751Z,8.17
2022-07-25T05:47:25.972Z,9.27
2022-07-25T05:49:53.085Z,9.33
2022-07-25T05:52:20.206Z,9.03
2022-07-25T05:54:47.133Z,8.33
2022-07-25T05:57:14.094Z,8.73
2022-07-25T05:59:41.110Z,8.70
2022-07-25T06:02:08.394Z,9.57
2022-07-25T06:04:35.455Z,9.40
2022-07-25T06:07:02.655Z,8.90
2022-07-25T06:09:32.028Z,8.87
2022-07-25T06:12:01.026Z,8.57
2022-07-25T06:14:29.234Z,8.30
2022-07-25T06:16:57.355Z,9.27
2022-07-25T06:19:24.489Z,9.40
2022-07-25T06:21:51.645Z,8.40
2022-07-25T06:24:18.805Z,8.23
2022-07-25T06:26:45.842Z,8.63
2022-07-25T06:29:13.093Z,8.70
2022-07-25T06:31:40.248Z,9.80
2022-07-25T06:34:09.171Z,8.50
2022-07-25T06:36:36.595Z,9.20
2022-07-25T06:39:04.057Z,9.60
2022-07-25T06:41:31.069Z,8.23
2022-07-25T06:43:58.067Z,8.80
2022-07-25T06:46:26.771Z,8.50
2022-07-25T06:48:54.058Z,8.00
2022-07-25T06:51:22.997Z,7.93
2022-07-25T06:53:50.544Z,8.20
2022-07-25T06:56:17.952Z,9.07
2022-07-25T06:58:45.621Z,7.70
2022-07-25T07:01:12.794Z,8.40
2022-07-25T07:03:40.717Z,9.23
2022-07-25T07:06:11.150Z,10.27
2022-07-25T07:08:38.246Z,9.13
2022-07-25T07:11:05.863Z,9.17
2022-07-25T07:13:32.942Z,8.80
2022-07-25T07:16:00.785Z,8.90
2022-07-25T07:18:27.891Z,9.30
2022-07-25T07:20:54.985Z,9.00
2022-07-25T07:23:21.979Z,7.77
2022-07-25T07:25:49.179Z,7.70
2022-07-25T07:28:16.869Z,7.97
2022-07-25T07:31:38.382Z,8.13
2022-07-25T07:33:32.930Z,8.47
2022-07-25T07:36:01.156Z,8.60
2022-07-25T07:38:28.506Z,8.23
2022-07-25T07:40:55.770Z,8.17
2022-07-25T07:43:29.062Z,9.43
2022-07-25T07:45:59.436Z,8.20
2022-07-25T07:48:27.645Z,8.13
2022-07-25T07:50:54.709Z,7.70
2022-07-25T07:53:21.742Z,7.37
2022-07-25T07:55:55.293Z,8.50
2022-07-25T07:58:22.461Z,7.97
2022-07-25T08:00:51.633Z,9.10
2022-07-25T08:03:20.422Z,8.80
2022-07-25T08:05:49.076Z,7.60
2022-07-25T08:08:16.799Z,7.97
2022-07-25T08:10:46.127Z,7.60
2022-07-25T08:13:21.577Z,8.20
2022-07-25T08:15:54.537Z,8.27
2022-07-25T08:18:21.845Z,7.90
2022-07-25T08:20:49.713Z,7.27
2022-07-25T08:23:17.383Z,7.97
2022-07-25T08:25:45.738Z,7.33
2022-07-25T08:28:13.476Z,7.53
2022-07-25T08:30:42.029Z,7.73
2022-07-25T08:33:12.613Z,10.50
2022-07-25T08:35:41.926Z,7.53
2022-07-25T08:38:11.771Z,7.87
2022-07-25T08:40:39.146Z,8.30
2022-07-25T08:43:06.413Z,8.03
2022-07-25T08:45:33.884Z,8.70
2022-07-25T08:48:00.868Z,7.53
2022-07-25T08:50:30.000Z,7.43
2022-07-25T08:53:22.969Z,8.27
2022-07-25T08:55:45.894Z,8.60
2022-07-25T08:58:17.989Z,8.17
2022-07-25T09:00:45.786Z,8.50
2022-07-25T09:03:13.464Z,7.77
2022-07-25T09:05:41.074Z,8.90
2022-07-25T09:08:11.509Z,8.47
2022-07-25T09:10:39.477Z,8.50
2022-07-25T09:13:11.152Z,8.30
2022-07-25T09:15:41.095Z,7.70
2022-07-25T09:18:10.973Z,8.70
2022-07-25T09:20:58.767Z,8.90
2022-07-25T09:23:37.498Z,8.83
2022-07-25T09:26:14.833Z,9.17
2022-07-25T09:28:49.935Z,8.60
2022-07-25T09:31:19.090Z,9.20
2022-07-25T09:33:51.895Z,8.07
2022-07-25T09:36:19.068Z,9.27
2022-07-25T09:39:06.600Z,9.33
2022-07-25T09:41:41.451Z,8.77
2022-07-25T09:44:23.285Z,8.47
2022-07-25T09:46:50.783Z,9.30
2022-07-25T09:49:17.909Z,8.70
2022-07-25T09:51:45.469Z,8.83
2022-07-25T09:54:12.453Z,8.23
2022-07-25T09:56:39.601Z,8.70
2022-07-25T09:59:06.947Z,8.87
2022-07-25T10:01:51.387Z,8.90
2022-07-25T10:04:24.678Z,8.50
2022-07-25T10:07:04.340Z,8.67
2022-07-25T10:09:32.630Z,9.20
2022-07-25T10:12:10.749Z,10.00
2022-07-25T10:14:38.613Z,8.50
2022-07-25T10:17:06.701Z,9.37
2022-07-25T10:19:50.844Z,8.90
2022-07-25T10:22:34.294Z,8.80
2022-07-25T10:25:18.710Z,8.10
2022-07-25T10:27:52.200Z,8.40
2022-07-25T10:30:26.705Z,8.23
2022-07-25T10:33:02.106Z,8.07
2022-07-25T10:35:29.537Z,8.50
2022-07-25T10:37:58.210Z,8.97
2022-07-25T10:40:49.329Z,7.97
2022-07-25T10:43:25.656Z,7.50
2022-07-25T10:45:59.902Z,8.40
2022-07-25T10:48:30.489Z,8.60
2022-07-25T10:51:06.449Z,8.60
2022-07-25T10:53:36.385Z,9.70
2022-07-25T10:56:14.146Z,8.90
2022-07-25T10:58:57.313Z,8.87
2022-07-25T11:01:31.112Z,8.40
2022-07-25T11:04:06.353Z,9.30
2022-07-25T11:06:38.367Z,8.30
2022-07-25T11:09:28.027Z,8.50
2022-07-25T11:11:57.654Z,8.97
2022-07-25T11:14:25.830Z,9.03
2022-07-25T11:16:56.061Z,8.27
2022-07-25T11:19:28.580Z,9.00
2022-07-25T11:22:00.432Z,8.03
2022-07-25T11:24:42.232Z,8.77
2022-07-25T11:27:12.821Z,9.33
2022-07-25T11:29:40.690Z,9.90
2022-07-25T11:32:12.166Z,8.57
2022-07-25T11:34:44.927Z,8.03
2022-07-25T11:37:13.914Z,8.77
2022-07-25T11:39:43.489Z,9.30
2022-07-25T11:42:16.551Z,8.80
2022-07-25T11:44:51.824Z,8.80
2022-07-25T11:47:27.534Z,8.47
2022-07-25T11:49:56.320Z,8.50
2022-07-25T11:52:30.501Z,8.83
2022-07-25T11:55:04.297Z,8.43
2022-07-25T11:57:36.812Z,8.27
2022-07-25T12:00:30.595Z,8.87
2022-07-25T12:03:08.683Z,8.17
2022-07-25T12:05:36.017Z,8.87
2022-07-25T12:08:36.873Z,9.13
2022-07-25T12:11:03.918Z,8.43
2022-07-25T12:13:31.540Z,8.53
2022-07-25T12:15:59.897Z,8.47
2022-07-25T12:18:27.751Z,8.00
2022-07-25T12:20:55.339Z,8.47
2022-07-25T12:23:22.405Z,8.70
2022-07-25T12:25:49.604Z,8.50
2022-07-25T12:28:17.065Z,8.53
2022-07-25T12:30:45.293Z,8.33
2022-07-25T12:33:13.126Z,8.47
2022-07-25T12:35:44.863Z,8.00
2022-07-25T12:38:12.005Z,8.57
2022-07-25T12:40:39.323Z,8.97
2022-07-25T12:43:06.498Z,8.70
2022-07-25T12:45:33.971Z,8.50
2022-07-25T12:48:00.973Z,8.80
2022-07-25T12:50:28.269Z,9.63
2022-07-25T12:52:55.357Z,8.67
2022-07-25T12:55:22.981Z,8.67
2022-07-25T12:57:50.440Z,8.53
2022-07-25T13:00:21.501Z,9.00
2022-07-25T13:02:51.222Z,8.60
2022-07-25T13:05:19.443Z,8.57
2022-07-25T13:07:47.537Z,8.73
2022-07-25T13:10:14.906Z,8.00
2022-07-25T13:12:42.248Z,9.00
2022-07-25T13:15:10.285Z,9.40
2022-07-25T13:17:37.640Z,8.33
2022-07-25T13:20:05.275Z,7.53
2022-07-25T13:22:32.512Z,7.97
2022-07-25T13:24:59.610Z,8.80
2022-07-25T13:27:26.586Z,8.60
2022-07-25T13:29:57.932Z,9.17
2022-07-25T13:32:26.806Z,9.30
2022-07-25T13:34:53.888Z,8.50
2022-07-25T13:37:20.901Z,7.77
2022-07-25T13:39:47.882Z,8.40
2022-07-25T13:42:14.958Z,8.43
2022-07-25T13:44:42.045Z,8.00
2022-07-25T13:47:09.018Z,7.27
2022-07-25T13:49:37.106Z,7.23
2022-07-25T13:52:04.446Z,8.43
2022-07-25T13:54:31.713Z,7.60
2022-07-25T13:56:59.038Z,7.30
2022-07-25T13:59:25.996Z,7.93
2022-07-25T14:01:53.219Z,7.93
2022-07-25T14:04:20.230Z,7.20
2022-07-25T14:06:51.942Z,6.80
2022-07-25T14:09:20.579Z,7.77
2022-07-25T14:11:48.297Z,7.43
2022-07-25T14:14:15.794Z,7.33
2022-07-25T14:16:42.871Z,7.30
2022-07-25T14:19:10.828Z,7.40
2022-07-25T14:21:38.128Z,7.20
2022-07-25T14:24:05.479Z,7.70
2022-07-25T14:26:34.326Z,6.90
2022-07-25T14:29:01.595Z,7.10
2022-07-25T14:31:28.713Z,6.83
2022-07-25T14:33:55.776Z,6.87
2022-07-25T14:36:24.071Z,6.87
2022-07-25T14:38:51.188Z,7.27
2022-07-25T14:41:19.657Z,7.00
2022-07-25T14:43:46.667Z,6.70
2022-07-25T14:46:14.013Z,6.90
2022-07-25T14:48:41.560Z,7.30
2022-07-25T14:51:08.839Z,6.53
2022-07-25T14:53:37.128Z,6.50
2022-07-25T14:56:06.055Z,6.90
2022-07-25T14:58:34.185Z,7.30
2022-07-25T15:01:01.684Z,7.40
2022-07-25T15:03:28.780Z,6.60
2022-07-25T15:05:55.832Z,6.87
2022-07-25T15:08:23.367Z,6.20
2022-07-25T15:10:50.454Z,6.43
2022-07-25T15:13:33.185Z,6.27
2022-07-25T15:16:01.297Z,6.70
2022-07-25T15:18:29.052Z,6.37
2022-07-25T15:20:56.078Z,6.50
2022-07-25T15:23:25.202Z,6.43
2022-07-25T15:26:02.725Z,6.70
2022-07-25T15:28:34.023Z,6.50
2022-07-25T15:31:01.318Z,6.80
2022-07-25T15:33:28.658Z,5.80
2022-07-25T15:35:55.867Z,6.00
2022-07-25T15:38:23.637Z,6.10
2022-07-25T15:40:51.268Z,6.70
2022-07-25T15:43:18.510Z,6.43
2022-07-25T15:45:46.412Z,6.60
2022-07-25T15:48:14.890Z,6.33
2022-07-25T15:50:47.634Z,6.37
2022-07-25T15:53:15.175Z,6.37
2022-07-25T15:55:42.609Z,6.47
2022-07-25T15:58:10.776Z,6.27
2022-07-25T16:00:38.626Z,7.07
2022-07-25T16:03:06.598Z,6.80
2022-07-25T16:05:34.104Z,6.60
2022-07-25T16:08:02.323Z,5.80
2022-07-25T16:10:33.230Z,6.67
2022-07-25T16:13:01.021Z,6.77
2022-07-25T16:15:28.343Z,6.70
2022-07-25T16:18:01.814Z,7.00
2022-07-25T16:20:31.703Z,7.07
2022-07-25T16:22:59.527Z,6.33
2022-07-25T16:25:28.190Z,6.00
2022-07-25T16:27:55.712Z,6.20
2022-07-25T16:30:23.328Z,7.30
2022-07-25T16:32:50.456Z,6.73
2022-07-25T16:35:17.476Z,5.57
2022-07-25T16:37:44.861Z,7.20
2022-07-25T16:40:12.561Z,5.97
2022-07-25T16:42:39.824Z,6.60
2022-07-25T16:45:07.451Z,6.70
2022-07-25T16:47:34.454Z,6.43
2022-07-25T16:50:01.740Z,6.40
2022-07-25T16:52:28.798Z,6.10
2022-07-25T16:54:55.816Z,6.80
2022-07-25T16:57:24.970Z,6.67
2022-07-25T16:59:53.682Z,7.90
2022-07-25T17:02:27.496Z,7.43
2022-07-25T17:04:55.026Z,7.10
2022-07-25T17:07:22.131Z,7.10
2022-07-25T17:09:49.089Z,6.83
2022-07-25T17:12:17.585Z,6.30
2022-07-25T17:14:45.135Z,7.23
2022-07-25T17:17:12.676Z,7.97
2022-07-25T17:19:40.250Z,8.30
2022-07-25T17:22:08.402Z,7.43
2022-07-25T17:24:36.012Z,8.20
2022-07-25T17:27:03.315Z,7.37
2022-07-25T17:29:30.384Z,8.07
2022-07-25T17:31:57.525Z,7.83
2022-07-25T17:34:26.730Z,7.53
2022-07-25T17:36:54.608Z,7.87
2022-07-25T17:39:21.656Z,8.23
2022-07-25T17:41:49.264Z,8.30
2022-07-25T17:44:16.747Z,8.17
2022-07-25T17:46:44.351Z,8.77
2022-07-25T17:49:11.465Z,7.90
2022-07-25T17:51:38.499Z,8.17
2022-07-25T17:54:06.058Z,9.30
2022-07-25T17:56:33.642Z,8.13
2022-07-25T17:59:00.701Z,8.37
2022-07-25T18:01:27.782Z,8.50
2022-07-25T18:03:54.884Z,8.80
2022-07-25T18:06:25.140Z,9.10
2022-07-25T18:08:56.334Z,8.00
2022-07-25T18:11:23.375Z,8.73
2022-07-25T18:13:50.353Z,9.30
2022-07-25T18:16:17.529Z,8.30
2022-07-25T18:18:44.595Z,8.70
2022-07-25T18:21:11.603Z,8.37
2022-07-25T18:23:38.619Z,8.67
2022-07-25T18:26:05.661Z,8.10
2022-07-25T18:28:32.722Z,9.23
2022-07-25T18:31:00.232Z,9.67
2022-07-25T18:33:27.318Z,8.73
2022-07-25T18:35:54.653Z,8.87
2022-07-25T18:38:21.733Z,8.90
2022-07-25T18:40:51.621Z,8.63
2022-07-25T18:43:24.781Z,7.90
2022-07-25T18:45:53.871Z,7.90
2022-07-25T18:48:21.702Z,9.40
2022-07-25T18:50:49.992Z,9.07
2022-07-25T18:53:17.480Z,8.67
2022-07-25T18:55:44.526Z,8.27
2022-07-25T18:58:15.951Z,9.07
2022-07-25T19:00:45.999Z,9.73
2022-07-25T19:03:13.044Z,9.97
2022-07-25T19:05:40.222Z,9.70
2022-07-25T19:08:07.448Z,9.60
2022-07-25T19:10:34.613Z,9.43
2022-07-25T19:13:01.797Z,9.90
2022-07-25T19:15:28.977Z,9.33
2022-07-25T19:17:57.006Z,10.03
2022-07-25T19:20:24.254Z,10.70
2022-07-25T19:22:51.549Z,10.23
2022-07-25T19:25:18.713Z,9.60
2022-07-25T19:27:45.893Z,9.00
2022-07-25T19:30:17.308Z,10.17
2022-07-25T19:32:45.192Z,10.97
2022-07-25T19:35:12.234Z,10.40
2022-07-25T19:37:39.439Z,10.07
2022-07-25T19:40:07.174Z,9.77
2022-07-25T19:42:35.892Z,11.83
2022-07-25T19:45:03.243Z,10.27
2022-07-25T19:47:30.224Z,10.10
2022-07-25T19:49:57.329Z,10.60
2022-07-25T19:52:24.461Z,11.57
2022-07-25T19:54:51.526Z,11.50
2022-07-25T19:57:18.614Z,10.50
2022-07-25T19:59:45.581Z,11.00
2022-07-25T20:02:13.139Z,10.70
2022-07-25T20:04:40.191Z,10.20
2022-07-25T20:07:07.745Z,9.67
2022-07-25T20:09:34.997Z,9.67
2022-07-25T20:12:03.496Z,10.27
2022-07-25T20:14:30.489Z,10.50
2022-07-25T20:16:57.948Z,9.80
2022-07-25T20:19:25.048Z,10.53
2022-07-25T20:21:52.026Z,9.63
2022-07-25T20:24:21.805Z,10.90
2022-07-25T20:26:49.201Z,9.37
2022-07-25T20:29:16.345Z,10.60
2022-07-25T20:31:45.131Z,10.40
2022-07-25T20:34:13.373Z,11.17
2022-07-25T20:36:40.558Z,11.57
2022-07-25T20:39:09.605Z,10.67
2022-07-25T20:41:38.118Z,9.90
2022-07-25T20:44:05.681Z,10.50
2022-07-25T20:46:36.104Z,9.27
2022-07-25T20:49:06.180Z,10.20
2022-07-25T20:51:33.563Z,10.87
2022-07-25T20:54:00.597Z,11.03
2022-07-25T20:56:27.709Z,10.30
2022-07-25T20:58:54.691Z,10.00
2022-07-25T21:01:21.811Z,9.97
2022-07-25T21:03:48.888Z,8.70
2022-07-25T21:06:15.969Z,9.67
2022-07-25T21:08:43.011Z,9.40
2022-07-25T21:11:10.062Z,9.63
2022-07-25T21:13:37.231Z,8.97
2022-07-25T21:16:04.597Z,9.73
2022-07-25T21:18:31.623Z,9.57
2022-07-25T21:20:59.475Z,9.40
2022-07-25T21:23:26.607Z,9.87
2022-07-25T21:25:53.579Z,9.67
2022-07-25T21:28:20.710Z,10.73
2022-07-25T21:30:48.169Z,10.87
2022-07-25T21:33:15.307Z,11.23
2022-07-25T21:35:49.260Z,10.97
2022-07-25T21:38:26.079Z,11.07
2022-07-25T21:40:55.312Z,10.60
2022-07-25T21:43:22.390Z,9.63
2022-07-25T21:45:49.696Z,10.10
2022-07-25T21:48:16.778Z,10.30
2022-07-25T21:50:50.348Z,9.40
2022-07-25T21:53:17.926Z,10.50
2022-07-25T21:55:44.874Z,9.37
2022-07-25T21:58:12.190Z,8.90
2022-07-25T22:00:43.828Z,9.80
2022-07-25T22:03:12.831Z,9.70
2022-07-25T22:05:39.877Z,9.73
2022-07-25T22:08:06.981Z,9.80
2022-07-25T22:10:34.072Z,8.23
2022-07-25T22:13:01.239Z,10.10
2022-07-25T22:15:28.348Z,10.20
2022-07-25T22:17:55.390Z,10.07
2022-07-25T22:20:22.825Z,10.00
2022-07-25T22:22:51.004Z,9.90
2022-07-25T22:25:18.266Z,10.23
2022-07-25T22:27:45.606Z,10.50
2022-07-25T22:30:18.249Z,10.50
2022-07-25T22:32:49.659Z,9.90
2022-07-25T22:35:17.001Z,10.43
2022-07-25T22:37:45.459Z,10.30
2022-07-25T22:40:14.215Z,10.37
2022-07-25T22:42:41.609Z,9.60
2022-07-25T22:45:09.311Z,10.30
2022-07-25T22:47:36.435Z,9.30
2022-07-25T22:50:04.547Z,9.43
2022-07-25T22:52:31.814Z,9.13
2022-07-25T22:54:58.806Z,8.97
2022-07-25T22:57:27.238Z,8.60
2022-07-25T22:59:54.282Z,9.57
2022-07-25T23:02:21.365Z,9.57
2022-07-25T23:04:48.324Z,9.83
2022-07-25T23:07:15.355Z,10.00
2022-07-25T23:09:42.365Z,8.90
2022-07-25T23:12:09.636Z,8.87
2022-07-25T23:14:36.732Z,8.03
2022-07-25T23:17:19.973Z,6.60
2022-07-25T23:19:52.390Z,6.00
2022-07-25T23:22:20.541Z,6.07
2022-07-25T23:24:47.744Z,5.83
2022-07-25T23:27:15.385Z,5.07
2022-07-25T23:29:42.478Z,4.37
2022-07-25T23:32:09.588Z,3.60
2022-07-25T23:34:36.947Z,2.53
2022-07-25T23:37:07.410Z,2.80
2022-07-25T23:39:34.640Z,2.07
2022-07-25T23:42:02.635Z,2.77
2022-07-25T23:44:29.849Z,2.27
2022-07-25T23:46:57.523Z,2.70
2022-07-25T23:49:24.627Z,2.93
2022-07-25T23:51:51.873Z,2.40
2022-07-25T23:54:19.490Z,2.77
2022-07-25T23:56:46.435Z,3.23
2022-07-25T23:59:13.540Z,2.67
